Time;durP1;ratioP1;P1;durP2;ratioP2;P2;SDS_P1;SDS_P2;PMS_P1;PMS_P2;Temp;Humidity;BMP_temperature;BMP_pressure;BME280_temperature;BME280_humidity;BME280_pressure;Samples;Min_cycle;Max_cycle;Signal;HPM_P1;HPM_P2
2023/10/15 00:01:31;;;;;;;0.00;0.00;;;;;;;;;;4981405;28;20823;-68
2023/10/15 00:03:57;;;;;;;0.00;0.00;;;;;;;;;;4977542;28;20446;-68
2023/10/15 00:06:23;;;;;;;0.00;0.00;;;;;;;;;;4981954;28;20046;-68
2023/10/15 00:08:50;;;;;;;0.00;0.00;;;;;;;;;;4982107;28;20050;-68
2023/10/15 00:11:18;;;;;;;0.00;0.00;;;;;;;;;;4978449;28;20058;-68
2023/10/15 00:13:44;;;;;;;0.00;0.00;;;;;;;;;;4978571;28;20566;-68
2023/10/15 00:16:16;;;;;;;0.00;0.00;;;;;;;;;;4978371;28;20070;-68
2023/10/15 00:18:42;;;;;;;0.00;0.00;;;;;;;;;;4976523;28;20046;-68
2023/10/15 00:21:12;;;;;;;0.00;0.00;;;;;;;;;;4976895;28;20309;-68
2023/10/15 00:23:38;;;;;;;0.00;0.00;;;;;;;;;;4978823;28;20561;-68
2023/10/15 00:26:04;;;;;;;0.00;0.00;;;;;;;;;;4974732;28;20034;-71
2023/10/15 00:28:31;;;;;;;0.00;0.00;;;;;;;;;;4988972;28;20042;-72
2023/10/15 00:30:57;;;;;;;0.00;0.00;;;;;;;;;;4984166;28;20039;-74
2023/10/15 00:33:23;;;;;;;0.00;0.00;;;;;;;;;;4978887;28;20129;-73
2023/10/15 00:35:53;;;;;;;0.00;0.00;;;;;;;;;;4979677;28;20120;-74
2023/10/15 00:38:19;;;;;;;0.00;0.00;;;;;;;;;;4980284;28;20188;-71
2023/10/15 00:40:46;;;;;;;0.00;0.00;;;;;;;;;;4979630;28;20066;-74
2023/10/15 00:43:17;;;;;;;0.00;0.00;;;;;;;;;;4978585;28;20485;-74
2023/10/15 00:45:45;;;;;;;0.00;0.00;;;;;;;;;;4991384;28;20137;-73
2023/10/15 00:48:21;;;;;;;0.00;0.00;;;;;;;;;;4979435;28;20042;-73
2023/10/15 00:50:47;;;;;;;0.00;0.00;;;;;;;;;;4979954;28;20046;-72
2023/10/15 00:53:24;;;;;;;0.00;0.00;;;;;;;;;;4984110;28;20787;-71
2023/10/15 00:56:04;;;;;;;0.00;0.00;;;;;;;;;;4979604;28;20065;-71
2023/10/15 00:58:34;;;;;;;0.00;0.00;;;;;;;;;;4983755;28;20056;-71
2023/10/15 01:01:00;;;;;;;0.00;0.00;;;;;;;;;;4992269;28;20048;-72
2023/10/15 01:03:33;;;;;;;0.00;0.00;;;;;;;;;;4976285;28;20118;-72
2023/10/15 01:06:04;;;;;;;0.00;0.00;;;;;;;;;;4975901;28;20042;-72
2023/10/15 01:08:35;;;;;;;0.00;0.00;;;;;;;;;;4984580;28;20038;-71
2023/10/15 01:11:10;;;;;;;0.00;0.00;;;;;;;;;;4979619;28;20045;-71
2023/10/15 01:13:38;;;;;;;0.00;0.00;;;;;;;;;;4976422;28;20045;-70
2023/10/15 01:16:05;;;;;;;0.00;0.00;;;;;;;;;;4986375;28;20688;-70
2023/10/15 01:18:31;;;;;;;0.00;0.00;;;;;;;;;;4980826;28;20053;-71
2023/10/15 01:21:01;;;;;;;0.00;0.00;;;;;;;;;;4983011;28;20034;-70
2023/10/15 01:23:43;;;;;;;0.00;0.00;;;;;;;;;;4978300;28;20034;-70
2023/10/15 01:26:23;;;;;;;0.00;0.00;;;;;;;;;;4979708;28;20042;-70
2023/10/15 01:28:49;;;;;;;0.00;0.00;;;;;;;;;;4980312;28;20038;-70
2023/10/15 01:31:15;;;;;;;0.00;0.00;;;;;;;;;;4976296;28;20565;-71
2023/10/15 01:33:49;;;;;;;0.00;0.00;;;;;;;;;;4979990;28;20043;-70
2023/10/15 01:36:21;;;;;;;0.00;0.00;;;;;;;;;;4980076;28;20163;-68
2023/10/15 01:38:54;;;;;;;0.00;0.00;;;;;;;;;;4980545;28;20057;-67
2023/10/15 01:41:22;;;;;;;0.00;0.00;;;;;;;;;;4977076;28;20045;-67
2023/10/15 01:43:49;;;;;;;0.00;0.00;;;;;;;;;;4976058;28;20785;-67
2023/10/15 01:49:06;;;;;;;0.00;0.00;;;;;;;;;;4975795;28;20108;-70
2023/10/15 01:51:39;;;;;;;0.00;0.00;;;;;;;;;;4983260;28;20143;-69
2023/10/15 01:54:09;;;;;;;0.00;0.00;;;;;;;;;;4977152;28;20065;-70
2023/10/15 01:56:36;;;;;;;0.00;0.00;;;;;;;;;;4994102;28;20033;-70
2023/10/15 01:59:07;;;;;;;0.00;0.00;;;;;;;;;;4989368;28;20040;-69
2023/10/15 02:01:37;;;;;;;0.00;0.00;;;;;;;;;;4994351;28;20141;-70
2023/10/15 02:04:03;;;;;;;0.00;0.00;;;;;;;;;;4979660;28;20045;-70
2023/10/15 02:06:35;;;;;;;0.00;0.00;;;;;;;;;;4999752;28;20573;-70
2023/10/15 02:09:07;;;;;;;0.00;0.00;;;;;;;;;;4998036;28;20031;-71
2023/10/15 02:11:37;;;;;;;0.00;0.00;;;;;;;;;;4990242;28;20050;-70
2023/10/15 02:14:07;;;;;;;0.00;0.00;;;;;;;;;;4979869;28;20049;-71
2023/10/15 02:16:37;;;;;;;0.00;0.00;;;;;;;;;;4975931;28;20482;-71
2023/10/15 02:19:07;;;;;;;0.00;0.00;;;;;;;;;;4977811;28;20038;-70
2023/10/15 02:21:34;;;;;;;0.00;0.00;;;;;;;;;;4977997;28;20062;-71
2023/10/15 02:24:08;;;;;;;0.00;0.00;;;;;;;;;;4978618;28;20566;-71
2023/10/15 02:26:35;;;;;;;0.00;0.00;;;;;;;;;;4986601;28;20519;-71
2023/10/15 02:29:20;;;;;;;0.00;0.00;;;;;;;;;;4978144;28;20290;-71
2023/10/15 02:31:46;;;;;;;0.00;0.00;;;;;;;;;;4982048;28;20380;-69
2023/10/15 02:34:15;;;;;;;0.00;0.00;;;;;;;;;;4975694;28;20433;-69
2023/10/15 02:36:42;;;;;;;0.00;0.00;;;;;;;;;;4977891;28;20038;-70
2023/10/15 02:39:08;;;;;;;0.00;0.00;;;;;;;;;;4977240;28;20041;-70
2023/10/15 02:41:41;;;;;;;0.00;0.00;;;;;;;;;;4979406;28;20250;-70
2023/10/15 02:44:13;;;;;;;0.00;0.00;;;;;;;;;;4977031;28;20057;-70
2023/10/15 02:46:47;;;;;;;0.00;0.00;;;;;;;;;;4979896;28;20038;-69
2023/10/15 02:49:15;;;;;;;0.00;0.00;;;;;;;;;;4977192;28;20082;-71
2023/10/15 02:51:42;;;;;;;0.00;0.00;;;;;;;;;;4978269;28;20172;-70
2023/10/15 02:54:36;;;;;;;0.00;0.00;;;;;;;;;;4976858;28;20186;-70
2023/10/15 02:57:03;;;;;;;0.00;0.00;;;;;;;;;;4978062;28;20057;-71
2023/10/15 02:59:31;;;;;;;0.00;0.00;;;;;;;;;;4976138;28;20161;-73
2023/10/15 03:01:57;;;;;;;0.00;0.00;;;;;;;;;;4976848;28;20320;-71
2023/10/15 03:04:32;;;;;;;0.00;0.00;;;;;;;;;;4976609;28;20955;-72
2023/10/15 03:07:18;;;;;;;0.00;0.00;;;;;;;;;;4975575;28;20038;-72
2023/10/15 03:09:44;;;;;;;0.00;0.00;;;;;;;;;;4985222;28;20792;-72
2023/10/15 03:12:14;;;;;;;0.00;0.00;;;;;;;;;;4979853;28;20050;-72
2023/10/15 03:14:41;;;;;;;0.00;0.00;;;;;;;;;;4977815;28;20042;-72
2023/10/15 03:17:13;;;;;;;0.00;0.00;;;;;;;;;;4974973;28;20045;-70
2023/10/15 03:19:40;;;;;;;0.00;0.00;;;;;;;;;;4975371;28;20869;-72
2023/10/15 03:22:11;;;;;;;0.00;0.00;;;;;;;;;;4973711;28;20117;-72
2023/10/15 03:24:37;;;;;;;0.00;0.00;;;;;;;;;;4976251;28;20052;-71
2023/10/15 03:27:05;;;;;;;0.00;0.00;;;;;;;;;;4976976;28;20318;-74
2023/10/15 03:29:31;;;;;;;0.00;0.00;;;;;;;;;;4982498;28;20035;-73
2023/10/15 03:32:09;;;;;;;0.00;0.00;;;;;;;;;;4979015;28;20118;-74
2023/10/15 03:34:42;;;;;;;0.00;0.00;;;;;;;;;;4985490;28;20038;-71
2023/10/15 03:37:12;;;;;;;0.00;0.00;;;;;;;;;;4980743;28;20049;-71
2023/10/15 03:42:39;;;;;;;0.00;0.00;;;;;;;;;;4983555;28;20034;-72
2023/10/15 03:44:59;;;;;;;0.00;0.00;;;;;;;;;;4975908;28;20042;-72
2023/10/15 03:47:26;;;;;;;0.00;0.00;;;;;;;;;;4981889;28;20458;-71
2023/10/15 03:49:52;;;;;;;0.00;0.00;;;;;;;;;;4981284;28;20030;-72
2023/10/15 03:52:22;;;;;;;0.00;0.00;;;;;;;;;;4983310;28;20324;-71
2023/10/15 03:54:51;;;;;;;0.00;0.00;;;;;;;;;;4980794;28;20916;-71
2023/10/15 03:57:22;;;;;;;0.00;0.00;;;;;;;;;;4979773;28;20046;-71
2023/10/15 03:59:52;;;;;;;0.00;0.00;;;;;;;;;;4980855;28;20122;-71
2023/10/15 04:02:39;;;;;;;0.00;0.00;;;;;;;;;;4982023;28;20042;-71
2023/10/15 04:05:12;;;;;;;0.00;0.00;;;;;;;;;;4978920;28;20499;-71
2023/10/15 04:07:41;;;;;;;0.00;0.00;;;;;;;;;;4978236;28;20042;-70
2023/10/15 04:10:08;;;;;;;0.00;0.00;;;;;;;;;;4980752;28;20049;-66
2023/10/15 04:12:35;;;;;;;0.00;0.00;;;;;;;;;;5002807;28;20038;-66
2023/10/15 04:15:02;;;;;;;0.00;0.00;;;;;;;;;;4992789;28;20395;-66
2023/10/15 04:17:29;;;;;;;0.00;0.00;;;;;;;;;;4981254;28;20049;-68
2023/10/15 04:19:56;;;;;;;0.00;0.00;;;;;;;;;;4979152;28;20046;-66
2023/10/15 04:22:22;;;;;;;0.00;0.00;;;;;;;;;;4982143;28;20049;-67
2023/10/15 04:24:50;;;;;;;0.00;0.00;;;;;;;;;;4982552;28;20088;-67
2023/10/15 04:27:17;;;;;;;0.00;0.00;;;;;;;;;;4982546;28;20030;-67
2023/10/15 04:29:51;;;;;;;0.00;0.00;;;;;;;;;;4981748;28;20030;-68
2023/10/15 04:32:28;;;;;;;0.00;0.00;;;;;;;;;;4980999;28;20038;-68
2023/10/15 04:35:01;;;;;;;0.00;0.00;;;;;;;;;;4979418;28;20046;-68
2023/10/15 04:37:27;;;;;;;0.00;0.00;;;;;;;;;;4984342;28;20042;-68
2023/10/15 04:39:54;;;;;;;0.00;0.00;;;;;;;;;;4976330;28;20137;-67
2023/10/15 04:42:30;;;;;;;0.00;0.00;;;;;;;;;;4986831;28;20045;-67
2023/10/15 04:44:56;;;;;;;0.00;0.00;;;;;;;;;;5004703;28;20045;-67
2023/10/15 04:47:27;;;;;;;0.00;0.00;;;;;;;;;;4982411;28;20048;-68
2023/10/15 04:49:57;;;;;;;0.00;0.00;;;;;;;;;;4976120;28;20499;-67
2023/10/15 04:52:23;;;;;;;0.00;0.00;;;;;;;;;;4979088;28;22131;-68
2023/10/15 04:54:49;;;;;;;0.00;0.00;;;;;;;;;;4981934;28;20053;-68
2023/10/15 04:57:15;;;;;;;0.00;0.00;;;;;;;;;;4977538;28;20041;-68
2023/10/15 04:59:42;;;;;;;0.00;0.00;;;;;;;;;;4980715;28;20042;-67
2023/10/15 05:02:08;;;;;;;0.00;0.00;;;;;;;;;;4988986;28;20496;-68
2023/10/15 05:04:35;;;;;;;0.00;0.00;;;;;;;;;;4985748;28;20037;-68
2023/10/15 05:07:01;;;;;;;0.00;0.00;;;;;;;;;;4981121;28;20502;-68
2023/10/15 05:09:31;;;;;;;0.00;0.00;;;;;;;;;;4978467;28;20054;-68
2023/10/15 05:11:58;;;;;;;0.00;0.00;;;;;;;;;;4986896;28;20042;-68
2023/10/15 05:14:24;;;;;;;0.00;0.00;;;;;;;;;;4981609;28;20053;-68
2023/10/15 05:16:50;;;;;;;0.00;0.00;;;;;;;;;;4977928;28;20039;-68
2023/10/15 05:19:19;;;;;;;0.00;0.00;;;;;;;;;;4978611;28;20049;-68
2023/10/15 05:21:46;;;;;;;0.00;0.00;;;;;;;;;;4979896;28;20479;-68
2023/10/15 05:24:18;;;;;;;0.00;0.00;;;;;;;;;;4978329;28;20086;-68
2023/10/15 05:26:46;;;;;;;0.00;0.00;;;;;;;;;;4978881;28;20045;-68
2023/10/15 05:29:13;;;;;;;0.00;0.00;;;;;;;;;;4978559;28;20034;-68
2023/10/15 05:31:39;;;;;;;0.00;0.00;;;;;;;;;;4981169;28;20038;-68
2023/10/15 05:34:07;;;;;;;0.00;0.00;;;;;;;;;;4980361;28;20030;-68
2023/10/15 05:36:33;;;;;;;0.00;0.00;;;;;;;;;;4977941;28;20376;-68
2023/10/15 05:38:59;;;;;;;0.00;0.00;;;;;;;;;;4978735;28;20068;-68
2023/10/15 05:41:27;;;;;;;0.00;0.00;;;;;;;;;;4977448;28;20121;-68
2023/10/15 05:43:53;;;;;;;0.00;0.00;;;;;;;;;;4979596;28;20046;-68
2023/10/15 05:46:20;;;;;;;0.00;0.00;;;;;;;;;;4977469;28;20042;-68
2023/10/15 05:48:47;;;;;;;0.00;0.00;;;;;;;;;;4977750;28;20038;-68
2023/10/15 05:51:13;;;;;;;0.00;0.00;;;;;;;;;;4978618;28;20042;-68
2023/10/15 05:53:39;;;;;;;0.00;0.00;;;;;;;;;;4978971;28;20283;-68
2023/10/15 05:56:05;;;;;;;0.00;0.00;;;;;;;;;;4978126;28;20604;-68
2023/10/15 05:58:32;;;;;;;0.00;0.00;;;;;;;;;;4982736;28;20250;-68
2023/10/15 06:00:58;;;;;;;0.00;0.00;;;;;;;;;;4985521;28;20258;-68
2023/10/15 06:03:24;;;;;;;0.00;0.00;;;;;;;;;;4981648;28;20456;-68
2023/10/15 06:05:50;;;;;;;0.00;0.00;;;;;;;;;;4983873;28;20053;-68
2023/10/15 06:08:16;;;;;;;0.00;0.00;;;;;;;;;;4975648;28;20042;-68
2023/10/15 06:10:42;;;;;;;0.00;0.00;;;;;;;;;;4979632;28;20050;-68
2023/10/15 06:13:09;;;;;;;0.00;0.00;;;;;;;;;;4978458;28;20038;-68
2023/10/15 06:15:35;;;;;;;0.00;0.00;;;;;;;;;;4980918;28;20061;-68
2023/10/15 06:18:01;;;;;;;0.00;0.00;;;;;;;;;;4978716;28;20042;-68
2023/10/15 06:20:28;;;;;;;0.00;0.00;;;;;;;;;;4985847;28;20494;-69
2023/10/15 06:23:00;;;;;;;0.00;0.00;;;;;;;;;;4978270;28;20035;-68
2023/10/15 06:25:26;;;;;;;0.00;0.00;;;;;;;;;;4978590;28;20509;-69
2023/10/15 06:27:52;;;;;;;0.00;0.00;;;;;;;;;;4978668;28;20034;-68
2023/10/15 06:30:19;;;;;;;0.00;0.00;;;;;;;;;;4976006;28;20101;-68
2023/10/15 06:32:47;;;;;;;0.00;0.00;;;;;;;;;;4978011;28;20046;-68
2023/10/15 06:35:18;;;;;;;0.00;0.00;;;;;;;;;;4986668;28;20076;-68
2023/10/15 06:37:44;;;;;;;0.00;0.00;;;;;;;;;;4982350;28;20045;-68
2023/10/15 06:40:10;;;;;;;0.00;0.00;;;;;;;;;;4982296;28;20050;-68
2023/10/15 06:42:36;;;;;;;0.00;0.00;;;;;;;;;;4989093;28;20046;-68
2023/10/15 06:45:03;;;;;;;0.00;0.00;;;;;;;;;;4984205;28;20498;-68
2023/10/15 06:47:29;;;;;;;0.00;0.00;;;;;;;;;;4982399;28;20167;-68
2023/10/15 06:49:55;;;;;;;0.00;0.00;;;;;;;;;;4981283;28;20049;-68
2023/10/15 06:52:21;;;;;;;0.00;0.00;;;;;;;;;;4981312;28;20521;-69
2023/10/15 06:54:48;;;;;;;0.00;0.00;;;;;;;;;;4979322;28;20246;-69
2023/10/15 06:57:16;;;;;;;0.00;0.00;;;;;;;;;;4984618;28;20050;-69
2023/10/15 06:59:42;;;;;;;0.00;0.00;;;;;;;;;;4976026;28;20030;-69
2023/10/15 07:02:08;;;;;;;0.00;0.00;;;;;;;;;;4990728;28;20109;-68
2023/10/15 07:04:34;;;;;;;0.00;0.00;;;;;;;;;;4977396;28;20125;-68
2023/10/15 07:07:00;;;;;;;0.00;0.00;;;;;;;;;;4986845;28;20034;-69
2023/10/15 07:09:27;;;;;;;0.00;0.00;;;;;;;;;;4976815;28;20109;-69
2023/10/15 07:11:53;;;;;;;0.00;0.00;;;;;;;;;;4978469;28;20113;-69
2023/10/15 07:14:19;;;;;;;0.00;0.00;;;;;;;;;;4981776;28;20121;-69
2023/10/15 07:16:45;;;;;;;0.00;0.00;;;;;;;;;;4980030;28;20038;-70
2023/10/15 07:19:11;;;;;;;0.00;0.00;;;;;;;;;;4981143;28;20062;-69
2023/10/15 07:21:38;;;;;;;0.00;0.00;;;;;;;;;;4977104;28;20108;-69
2023/10/15 07:24:05;;;;;;;0.00;0.00;;;;;;;;;;4977645;28;20068;-70
2023/10/15 07:26:31;;;;;;;0.00;0.00;;;;;;;;;;4979150;28;20030;-70
2023/10/15 07:28:57;;;;;;;0.00;0.00;;;;;;;;;;4977134;28;20046;-69
2023/10/15 07:31:24;;;;;;;0.00;0.00;;;;;;;;;;4980543;28;20034;-70
2023/10/15 07:33:50;;;;;;;0.00;0.00;;;;;;;;;;4976653;28;20581;-70
2023/10/15 07:36:16;;;;;;;0.00;0.00;;;;;;;;;;4976957;28;20060;-70
2023/10/15 07:38:42;;;;;;;0.00;0.00;;;;;;;;;;4981595;28;20065;-70
2023/10/15 07:41:09;;;;;;;0.00;0.00;;;;;;;;;;4979876;28;20089;-70
2023/10/15 07:43:35;;;;;;;0.00;0.00;;;;;;;;;;4981540;28;20149;-70
2023/10/15 07:46:01;;;;;;;0.00;0.00;;;;;;;;;;4979985;28;20710;-70
2023/10/15 07:48:27;;;;;;;0.00;0.00;;;;;;;;;;4973689;28;20042;-70
2023/10/15 07:50:54;;;;;;;0.00;0.00;;;;;;;;;;4979782;28;20046;-69
2023/10/15 07:53:21;;;;;;;0.00;0.00;;;;;;;;;;4977069;28;20756;-69
2023/10/15 07:55:49;;;;;;;0.00;0.00;;;;;;;;;;4977243;28;20038;-69
2023/10/15 07:58:15;;;;;;;0.00;0.00;;;;;;;;;;4977534;28;20050;-69
2023/10/15 08:00:41;;;;;;;0.00;0.00;;;;;;;;;;4985737;28;20038;-69
2023/10/15 08:03:07;;;;;;;0.00;0.00;;;;;;;;;;4983326;28;20053;-70
2023/10/15 08:05:34;;;;;;;0.00;0.00;;;;;;;;;;4985650;28;20042;-69
2023/10/15 08:08:00;;;;;;;0.00;0.00;;;;;;;;;;4976520;28;20131;-70
2023/10/15 08:10:32;;;;;;;0.00;0.00;;;;;;;;;;4975514;28;20478;-70
2023/10/15 08:13:04;;;;;;;0.00;0.00;;;;;;;;;;4975359;28;20327;-70
2023/10/15 08:15:33;;;;;;;0.00;0.00;;;;;;;;;;4989340;28;20101;-69
2023/10/15 08:18:01;;;;;;;0.00;0.00;;;;;;;;;;4972665;28;20381;-69
2023/10/15 08:20:27;;;;;;;0.00;0.00;;;;;;;;;;4980875;28;20471;-70
2023/10/15 08:22:54;;;;;;;0.00;0.00;;;;;;;;;;4981851;28;20030;-70
2023/10/15 08:25:23;;;;;;;0.00;0.00;;;;;;;;;;4979836;28;20038;-70
2023/10/15 08:27:49;;;;;;;0.00;0.00;;;;;;;;;;4981544;28;20494;-70
2023/10/15 08:30:17;;;;;;;0.00;0.00;;;;;;;;;;4977602;28;20121;-70
2023/10/15 08:32:47;;;;;;;0.00;0.00;;;;;;;;;;4987316;28;20569;-71
2023/10/15 08:35:16;;;;;;;0.00;0.00;;;;;;;;;;4988727;28;20039;-71
2023/10/15 08:37:42;;;;;;;0.00;0.00;;;;;;;;;;4981816;28;20128;-71
2023/10/15 08:40:15;;;;;;;0.00;0.00;;;;;;;;;;4975231;28;20553;-71
2023/10/15 08:42:48;;;;;;;0.00;0.00;;;;;;;;;;4981027;28;20494;-71
2023/10/15 08:45:21;;;;;;;0.00;0.00;;;;;;;;;;4984717;28;20038;-72
2023/10/15 08:47:48;;;;;;;0.00;0.00;;;;;;;;;;4978118;28;20038;-71
2023/10/15 08:50:16;;;;;;;0.00;0.00;;;;;;;;;;4986192;28;20878;-72
2023/10/15 08:52:43;;;;;;;0.00;0.00;;;;;;;;;;4980307;28;20042;-72
2023/10/15 08:55:09;;;;;;;0.00;0.00;;;;;;;;;;4976085;28;20042;-72
2023/10/15 08:57:36;;;;;;;0.00;0.00;;;;;;;;;;4977618;28;20056;-72
2023/10/15 09:00:04;;;;;;;0.00;0.00;;;;;;;;;;4981450;28;20060;-70
2023/10/15 09:02:31;;;;;;;0.00;0.00;;;;;;;;;;4986402;28;20046;-73
2023/10/15 09:04:57;;;;;;;0.00;0.00;;;;;;;;;;4985477;28;20505;-72
2023/10/15 09:07:23;;;;;;;0.00;0.00;;;;;;;;;;4987857;28;20042;-72
2023/10/15 09:09:49;;;;;;;0.00;0.00;;;;;;;;;;4977881;28;20046;-72
2023/10/15 09:12:15;;;;;;;0.00;0.00;;;;;;;;;;4976127;28;20074;-72
2023/10/15 09:14:43;;;;;;;0.00;0.00;;;;;;;;;;4974958;28;20046;-72
2023/10/15 09:17:14;;;;;;;0.00;0.00;;;;;;;;;;4985643;28;20424;-72
2023/10/15 09:19:41;;;;;;;0.00;0.00;;;;;;;;;;4974587;28;20600;-71
2023/10/15 09:22:16;;;;;;;0.00;0.00;;;;;;;;;;4975469;28;20031;-72
2023/10/15 09:24:43;;;;;;;0.00;0.00;;;;;;;;;;4972830;28;20887;-73
2023/10/15 09:27:09;;;;;;;0.00;0.00;;;;;;;;;;4973362;28;20033;-73
2023/10/15 09:29:35;;;;;;;0.00;0.00;;;;;;;;;;4976189;28;20030;-73
2023/10/15 09:32:02;;;;;;;0.00;0.00;;;;;;;;;;4979902;28;20061;-72
2023/10/15 09:34:32;;;;;;;0.00;0.00;;;;;;;;;;4993702;28;20057;-73
2023/10/15 09:36:58;;;;;;;0.00;0.00;;;;;;;;;;4993638;28;20402;-73
2023/10/15 09:39:26;;;;;;;0.00;0.00;;;;;;;;;;4994084;28;20068;-72
2023/10/15 09:41:53;;;;;;;0.00;0.00;;;;;;;;;;4997916;28;20585;-73
2023/10/15 09:44:19;;;;;;;0.00;0.00;;;;;;;;;;4998080;28;20042;-73
2023/10/15 09:46:46;;;;;;;0.00;0.00;;;;;;;;;;4994468;28;20038;-72
2023/10/15 09:49:13;;;;;;;0.00;0.00;;;;;;;;;;4994937;28;20045;-73
2023/10/15 09:51:40;;;;;;;0.00;0.00;;;;;;;;;;4998991;28;20501;-73
2023/10/15 09:54:11;;;;;;;0.00;0.00;;;;;;;;;;4993027;28;20069;-73
2023/10/15 09:56:40;;;;;;;0.00;0.00;;;;;;;;;;4991739;28;20446;-73
2023/10/15 09:59:07;;;;;;;0.00;0.00;;;;;;;;;;4995817;28;20042;-72
2023/10/15 10:01:34;;;;;;;0.00;0.00;;;;;;;;;;4996290;28;20132;-72
2023/10/15 10:04:18;;;;;;;0.00;0.00;;;;;;;;;;4995826;28;20038;-73
2023/10/15 10:06:48;;;;;;;0.00;0.00;;;;;;;;;;4979462;28;20855;-72
2023/10/15 10:09:46;;;;;;;0.00;0.00;;;;;;;;;;4976409;28;20038;-72
2023/10/15 10:12:32;;;;;;;0.00;0.00;;;;;;;;;;4989486;28;20050;-73
2023/10/15 10:15:04;;;;;;;0.00;0.00;;;;;;;;;;4984784;28;20029;-72
2023/10/15 10:17:31;;;;;;;0.00;0.00;;;;;;;;;;4991001;28;20100;-73
2023/10/15 10:19:57;;;;;;;0.00;0.00;;;;;;;;;;4986577;28;20034;-73
2023/10/15 10:22:24;;;;;;;0.00;0.00;;;;;;;;;;4982365;28;20050;-73
2023/10/15 10:24:53;;;;;;;0.00;0.00;;;;;;;;;;4975649;28;20038;-73
2023/10/15 10:27:19;;;;;;;0.00;0.00;;;;;;;;;;4992287;28;20034;-73
2023/10/15 10:29:58;;;;;;;0.00;0.00;;;;;;;;;;4980004;28;20144;-72
2023/10/15 10:32:24;;;;;;;0.00;0.00;;;;;;;;;;4980904;28;20202;-72
2023/10/15 10:35:10;;;;;;;0.00;0.00;;;;;;;;;;4991874;28;20071;-73
2023/10/15 10:37:36;;;;;;;0.00;0.00;;;;;;;;;;4987528;28;20042;-72
2023/10/15 10:40:02;;;;;;;0.00;0.00;;;;;;;;;;4979908;28;20034;-73
2023/10/15 10:42:29;;;;;;;0.00;0.00;;;;;;;;;;4977346;28;20042;-72
2023/10/15 10:44:58;;;;;;;0.00;0.00;;;;;;;;;;4981583;28;20065;-72
2023/10/15 10:47:29;;;;;;;0.00;0.00;;;;;;;;;;4981973;28;20378;-72
2023/10/15 10:49:56;;;;;;;0.00;0.00;;;;;;;;;;4981445;28;20042;-73
2023/10/15 10:52:35;;;;;;;0.00;0.00;;;;;;;;;;4965560;28;20557;-72
2023/10/15 10:55:29;;;;;;;0.00;0.00;;;;;;;;;;4972455;28;20157;-72
2023/10/15 10:57:55;;;;;;;0.00;0.00;;;;;;;;;;4980094;28;21945;-73
2023/10/15 11:00:21;;;;;;;0.00;0.00;;;;;;;;;;4975168;28;20050;-72
2023/10/15 11:02:48;;;;;;;0.00;0.00;;;;;;;;;;4978229;28;20126;-72
2023/10/15 11:05:14;;;;;;;0.00;0.00;;;;;;;;;;4978498;28;20064;-72
2023/10/15 11:07:40;;;;;;;0.00;0.00;;;;;;;;;;4977331;28;20430;-72
2023/10/15 11:10:07;;;;;;;0.00;0.00;;;;;;;;;;4978213;28;20046;-73
2023/10/15 11:12:33;;;;;;;0.00;0.00;;;;;;;;;;4976120;28;20050;-70
2023/10/15 11:14:59;;;;;;;0.00;0.00;;;;;;;;;;4976278;28;20045;-70
2023/10/15 11:17:25;;;;;;;0.00;0.00;;;;;;;;;;4970871;28;20139;-71
2023/10/15 11:19:51;;;;;;;0.00;0.00;;;;;;;;;;4974443;28;20533;-71
2023/10/15 11:22:17;;;;;;;0.00;0.00;;;;;;;;;;4973139;28;20126;-72
2023/10/15 11:24:46;;;;;;;0.00;0.00;;;;;;;;;;4973634;28;20050;-71
2023/10/15 11:27:12;;;;;;;0.00;0.00;;;;;;;;;;4979043;28;20569;-71
2023/10/15 11:29:38;;;;;;;0.00;0.00;;;;;;;;;;4976276;28;20038;-71
2023/10/15 11:32:11;;;;;;;0.00;0.00;;;;;;;;;;4975043;28;20030;-70
2023/10/15 11:34:39;;;;;;;0.00;0.00;;;;;;;;;;4972711;28;20917;-71
2023/10/15 11:37:09;;;;;;;0.00;0.00;;;;;;;;;;4978862;28;20481;-71
2023/10/15 11:39:38;;;;;;;0.00;0.00;;;;;;;;;;4984805;28;20066;-72
2023/10/15 11:42:05;;;;;;;0.00;0.00;;;;;;;;;;4977325;28;20074;-71
2023/10/15 11:44:31;;;;;;;0.00;0.00;;;;;;;;;;4980078;28;20034;-71
2023/10/15 11:46:57;;;;;;;0.00;0.00;;;;;;;;;;4976968;28;20038;-71
2023/10/15 11:49:25;;;;;;;0.00;0.00;;;;;;;;;;4974374;28;20045;-70
2023/10/15 11:51:55;;;;;;;0.00;0.00;;;;;;;;;;4973547;28;20066;-70
2023/10/15 11:54:23;;;;;;;0.00;0.00;;;;;;;;;;4993290;28;20038;-71
2023/10/15 11:56:54;;;;;;;0.00;0.00;;;;;;;;;;4974551;28;20276;-71
2023/10/15 11:59:21;;;;;;;0.00;0.00;;;;;;;;;;4975785;28;20067;-71
2023/10/15 12:01:51;;;;;;;0.00;0.00;;;;;;;;;;4978137;28;20982;-71
2023/10/15 12:04:17;;;;;;;0.00;0.00;;;;;;;;;;4978913;28;20030;-70
2023/10/15 12:06:43;;;;;;;0.00;0.00;;;;;;;;;;4983272;28;20045;-68
2023/10/15 12:09:12;;;;;;;0.00;0.00;;;;;;;;;;4980207;28;20164;-69
2023/10/15 12:11:39;;;;;;;0.00;0.00;;;;;;;;;;4981517;28;20430;-69
2023/10/15 12:14:05;;;;;;;0.00;0.00;;;;;;;;;;4981086;28;20465;-69
2023/10/15 12:16:31;;;;;;;0.00;0.00;;;;;;;;;;4985999;28;20057;-68
2023/10/15 12:18:57;;;;;;;0.00;0.00;;;;;;;;;;4981960;28;20387;-69
2023/10/15 12:21:23;;;;;;;0.00;0.00;;;;;;;;;;4981049;28;20077;-69
2023/10/15 12:23:49;;;;;;;0.00;0.00;;;;;;;;;;4983198;28;20039;-68
2023/10/15 12:26:15;;;;;;;0.00;0.00;;;;;;;;;;4982475;28;20438;-68
2023/10/15 12:28:47;;;;;;;0.00;0.00;;;;;;;;;;4989822;28;20052;-68
2023/10/15 12:31:13;;;;;;;0.00;0.00;;;;;;;;;;4981455;28;20133;-68
2023/10/15 12:33:39;;;;;;;0.00;0.00;;;;;;;;;;4982175;28;20050;-68
2023/10/15 12:36:09;;;;;;;0.00;0.00;;;;;;;;;;4976393;28;20030;-67
2023/10/15 12:38:35;;;;;;;0.00;0.00;;;;;;;;;;4971415;28;20038;-67
2023/10/15 12:41:01;;;;;;;0.00;0.00;;;;;;;;;;4978314;28;20116;-69
2023/10/15 12:43:27;;;;;;;0.00;0.00;;;;;;;;;;4979944;28;20781;-70
2023/10/15 12:45:54;;;;;;;0.00;0.00;;;;;;;;;;4982157;28;20046;-69
2023/10/15 12:48:20;;;;;;;0.00;0.00;;;;;;;;;;4979472;28;20050;-70
2023/10/15 12:50:47;;;;;;;0.00;0.00;;;;;;;;;;4977256;28;20090;-69
2023/10/15 12:53:13;;;;;;;0.00;0.00;;;;;;;;;;4977306;28;20046;-68
2023/10/15 12:55:39;;;;;;;0.00;0.00;;;;;;;;;;4982764;28;20077;-70
2023/10/15 12:58:05;;;;;;;0.00;0.00;;;;;;;;;;4975227;28;20041;-69
2023/10/15 13:00:32;;;;;;;0.00;0.00;;;;;;;;;;4978338;28;20121;-71
2023/10/15 13:02:58;;;;;;;0.00;0.00;;;;;;;;;;4972384;28;20039;-70
2023/10/15 13:05:27;;;;;;;0.00;0.00;;;;;;;;;;4967359;28;20038;-71
2023/10/15 13:07:54;;;;;;;0.00;0.00;;;;;;;;;;4982613;28;20085;-70
2023/10/15 13:10:20;;;;;;;0.00;0.00;;;;;;;;;;4980021;28;20172;-70
2023/10/15 13:12:51;;;;;;;0.00;0.00;;;;;;;;;;4996478;28;20469;-70
2023/10/15 13:15:21;;;;;;;0.00;0.00;;;;;;;;;;4972404;28;20058;-71
2023/10/15 13:17:48;;;;;;;0.00;0.00;;;;;;;;;;4974003;28;20057;-71
2023/10/15 13:20:14;;;;;;;0.00;0.00;;;;;;;;;;4982072;28;20043;-70
2023/10/15 13:22:42;;;;;;;0.00;0.00;;;;;;;;;;4984341;28;20116;-70
2023/10/15 13:25:08;;;;;;;0.00;0.00;;;;;;;;;;4977169;28;20501;-70
2023/10/15 13:27:34;;;;;;;0.00;0.00;;;;;;;;;;4975631;28;20057;-70
2023/10/15 13:30:01;;;;;;;0.00;0.00;;;;;;;;;;4975010;28;20042;-71
2023/10/15 13:32:27;;;;;;;0.00;0.00;;;;;;;;;;4976740;28;20034;-70
2023/10/15 13:34:53;;;;;;;0.00;0.00;;;;;;;;;;4982585;28;20056;-72
2023/10/15 13:37:19;;;;;;;0.00;0.00;;;;;;;;;;4981886;28;20523;-73
2023/10/15 13:39:49;;;;;;;0.00;0.00;;;;;;;;;;4985350;28;20069;-73
2023/10/15 13:42:15;;;;;;;0.00;0.00;;;;;;;;;;4980957;28;20149;-73
2023/10/15 13:44:41;;;;;;;0.00;0.00;;;;;;;;;;4975771;28;20145;-73
2023/10/15 13:47:08;;;;;;;0.00;0.00;;;;;;;;;;4977342;28;20117;-73
2023/10/15 13:49:34;;;;;;;0.00;0.00;;;;;;;;;;4978865;28;20037;-69
2023/10/15 13:52:01;;;;;;;0.00;0.00;;;;;;;;;;4985149;28;20405;-71
2023/10/15 13:54:26;;;;;;;0.00;0.00;;;;;;;;;;4976601;28;20035;-71
2023/10/15 13:56:55;;;;;;;0.00;0.00;;;;;;;;;;4983386;28;20077;-70
2023/10/15 13:59:21;;;;;;;0.00;0.00;;;;;;;;;;4980949;28;20057;-74
2023/10/15 14:01:47;;;;;;;0.00;0.00;;;;;;;;;;4979167;28;20041;-73
2023/10/15 14:04:13;;;;;;;0.00;0.00;;;;;;;;;;4975664;28;20046;-74
2023/10/15 14:06:39;;;;;;;0.00;0.00;;;;;;;;;;4978088;28;20390;-70
2023/10/15 14:09:10;;;;;;;0.00;0.00;;;;;;;;;;4992346;28;20493;-70
2023/10/15 14:11:37;;;;;;;0.00;0.00;;;;;;;;;;4980855;28;20124;-72
2023/10/15 14:14:06;;;;;;;0.00;0.00;;;;;;;;;;4979255;28;20116;-73
2023/10/15 14:16:33;;;;;;;0.00;0.00;;;;;;;;;;4992323;28;20038;-73
2023/10/15 14:18:59;;;;;;;0.00;0.00;;;;;;;;;;4984290;28;20034;-73
2023/10/15 14:21:25;;;;;;;0.00;0.00;;;;;;;;;;4975160;28;20049;-73
2023/10/15 14:23:51;;;;;;;0.00;0.00;;;;;;;;;;4977930;28;20042;-73
2023/10/15 14:26:17;;;;;;;0.00;0.00;;;;;;;;;;4979519;28;20606;-73
2023/10/15 14:28:46;;;;;;;0.00;0.00;;;;;;;;;;4981775;28;20198;-73
2023/10/15 14:31:12;;;;;;;0.00;0.00;;;;;;;;;;4978391;28;20434;-73
2023/10/15 14:33:38;;;;;;;0.00;0.00;;;;;;;;;;4982075;28;20037;-70
2023/10/15 14:36:06;;;;;;;0.00;0.00;;;;;;;;;;4978488;28;20133;-72
2023/10/15 14:38:32;;;;;;;0.00;0.00;;;;;;;;;;4979621;28;20034;-73
2023/10/15 14:40:58;;;;;;;0.00;0.00;;;;;;;;;;4978134;28;20053;-73
2023/10/15 14:43:25;;;;;;;0.00;0.00;;;;;;;;;;4979939;28;20501;-73
2023/10/15 14:45:51;;;;;;;0.00;0.00;;;;;;;;;;4978772;28;20041;-67
2023/10/15 14:48:17;;;;;;;0.00;0.00;;;;;;;;;;4975900;28;20611;-67
2023/10/15 14:50:46;;;;;;;0.00;0.00;;;;;;;;;;4975122;28;20723;-68
2023/10/15 14:53:16;;;;;;;0.00;0.00;;;;;;;;;;4978262;28;20042;-67
2023/10/15 14:55:44;;;;;;;0.00;0.00;;;;;;;;;;4976219;28;20089;-68